createdAt,value
2023-04-15T00:00:49.089Z,98082.53
2023-04-15T00:03:57.274Z,98076.31
2023-04-15T00:06:59.135Z,98085.03
2023-04-15T00:10:02.354Z,98070.22
2023-04-15T00:13:06.781Z,98073.19
2023-04-15T00:16:11.585Z,98053.41
2023-04-15T00:19:25.510Z,98063.69
2023-04-15T00:22:29.974Z,98061.13
2023-04-15T00:25:31.663Z,98062.16
2023-04-15T00:28:35.967Z,98068.81
2023-04-15T00:31:38.414Z,98066.44
2023-04-15T00:34:39.963Z,98062.97
2023-04-15T00:37:48.561Z,98062.84
2023-04-15T00:40:50.243Z,98058.44
2023-04-15T00:43:52.162Z,98065.97
2023-04-15T00:46:54.081Z,98068.41
2023-04-15T00:49:56.004Z,98071.16
2023-04-15T00:52:58.256Z,98065.78
2023-04-15T00:55:59.899Z,98072.47
2023-04-15T00:59:09.265Z,98075.03
2023-04-15T01:02:11.231Z,98078.47
2023-04-15T01:05:14.989Z,98079.66
2023-04-15T01:08:31.526Z,98061.47
2023-04-15T01:11:36.373Z,98074.66
2023-04-15T01:14:41.369Z,98076.13
2023-04-15T01:17:43.667Z,98082.44
2023-04-15T01:20:48.343Z,98064.88
2023-04-15T01:23:52.780Z,98064.38
2023-04-15T01:27:23.464Z,98076.03
2023-04-15T01:30:27.165Z,98073.72
2023-04-15T01:33:39.702Z,98093.13
2023-04-15T01:36:43.677Z,98085.72
2023-04-15T01:39:45.494Z,98077.88
2023-04-15T01:42:47.284Z,98079.94
2023-04-15T01:45:50.584Z,98073.16
2023-04-15T01:48:52.777Z,98070.25
2023-04-15T01:51:57.336Z,98070.19
2023-04-15T01:54:58.949Z,98079.25
2023-04-15T01:58:01.293Z,98066.41
2023-04-15T02:01:04.681Z,98063.97
2023-04-15T02:04:07.333Z,98059.03
2023-04-15T02:07:08.881Z,98050.06
2023-04-15T02:10:19.781Z,98056.16
2023-04-15T02:13:29.119Z,98054.63
2023-04-15T02:16:38.085Z,98044.97
2023-04-15T02:19:40.575Z,98045.97
2023-04-15T02:22:48.741Z,98069.91
2023-04-15T02:25:53.296Z,98059.63
2023-04-15T02:28:56.268Z,98063.31
2023-04-15T02:32:00.797Z,98066.56
2023-04-15T02:35:04.044Z,98070.53
2023-04-15T02:38:06.466Z,98068.59
2023-04-15T02:41:09.442Z,98068.78
2023-04-15T02:44:13.094Z,98074.47
2023-04-15T02:47:15.976Z,98070.84
2023-04-15T02:50:18.005Z,98064.91
2023-04-15T02:53:20.105Z,98066.88
2023-04-15T02:59:41.648Z,98074.00
2023-04-15T03:02:50.861Z,98069.47
2023-04-15T03:05:52.654Z,98075.81
2023-04-15T03:12:19.233Z,98071.69
2023-04-15T03:15:21.554Z,98074.69
2023-04-15T03:18:26.569Z,98074.88
2023-04-15T03:21:31.486Z,98072.38
2023-04-15T03:24:39.200Z,98062.53
2023-04-15T03:27:41.641Z,98068.81
2023-04-15T03:30:59.984Z,98078.91
2023-04-15T03:34:02.538Z,98067.88
2023-04-15T03:40:21.684Z,98070.41
2023-04-15T03:43:26.448Z,98070.41
2023-04-15T03:46:28.112Z,98078.78
2023-04-15T03:49:38.187Z,98068.97
2023-04-15T03:52:42.056Z,98067.22
2023-04-15T03:55:54.248Z,98064.91
2023-04-15T03:58:55.935Z,98059.84
2023-04-15T04:01:57.645Z,98057.34
2023-04-15T04:04:59.204Z,98067.22
2023-04-15T04:08:00.704Z,98072.75
2023-04-15T04:11:04.594Z,98070.25
2023-04-15T04:14:08.202Z,98077.03
2023-04-15T04:17:09.737Z,98073.56
2023-04-15T04:20:17.313Z,98077.03
2023-04-15T04:23:21.701Z,98076.56
2023-04-15T04:29:49.911Z,98080.06
2023-04-15T04:32:57.548Z,98078.31
2023-04-15T04:35:59.087Z,98080.84
2023-04-15T04:39:01.508Z,98088.84
2023-04-15T04:42:04.546Z,98076.53
2023-04-15T04:45:09.437Z,98076.03
2023-04-15T04:48:11.523Z,98078.06
2023-04-15T04:51:13.096Z,98090.19
2023-04-15T04:54:16.195Z,98087.53
2023-04-15T04:57:17.745Z,98088.13
2023-04-15T05:00:19.351Z,98093.13
2023-04-15T05:03:22.132Z,98096.75
2023-04-15T05:09:42.433Z,98095.16
2023-04-15T05:12:45.649Z,98093.88
2023-04-15T05:15:47.339Z,98087.38
2023-04-15T05:18:50.953Z,98096.03
2023-04-15T05:21:55.574Z,98092.56
2023-04-15T05:24:57.096Z,98099.47
2023-04-15T05:27:58.665Z,98095.88
2023-04-15T05:31:00.718Z,98096.63
2023-04-15T05:34:02.331Z,98096.94
2023-04-15T05:37:04.622Z,98101.16
2023-04-15T05:40:06.643Z,98101.09
2023-04-15T05:43:09.791Z,98111.34
2023-04-15T05:46:11.425Z,98097.59
2023-04-15T05:49:14.747Z,98106.81
2023-04-15T05:52:22.083Z,98109.06
2023-04-15T05:55:23.700Z,98106.66
2023-04-15T05:58:25.280Z,98110.44
2023-04-15T06:01:35.803Z,98104.22
2023-04-15T06:04:56.268Z,98108.78
2023-04-15T06:07:57.799Z,98103.09
2023-04-15T06:11:01.640Z,98102.59
2023-04-15T06:14:03.291Z,98104.97
2023-04-15T06:20:20.408Z,98111.03
2023-04-15T06:23:22.042Z,98114.19
2023-04-15T06:26:23.664Z,98113.00
2023-04-15T06:29:25.346Z,98111.25
2023-04-15T06:32:27.022Z,98117.44
2023-04-15T06:35:28.727Z,98116.84
2023-04-15T06:38:33.833Z,98117.34
2023-04-15T06:41:36.344Z,98114.66
2023-04-15T06:45:04.373Z,98126.53
2023-04-15T06:48:07.080Z,98123.50
2023-04-15T06:51:08.657Z,98120.72
2023-04-15T06:54:10.261Z,98130.56
2023-04-15T06:57:11.860Z,98130.03
2023-04-15T07:00:13.905Z,98138.25
2023-04-15T07:03:15.717Z,98144.00
2023-04-15T07:06:17.263Z,98149.19
2023-04-15T07:09:18.769Z,98133.06
2023-04-15T07:12:20.844Z,98134.78
2023-04-15T07:15:23.563Z,98135.94
2023-04-15T07:18:25.605Z,98143.09
2023-04-15T07:24:50.245Z,98127.09
2023-04-15T07:28:02.471Z,98124.06
2023-04-15T07:31:08.063Z,98135.88
2023-04-15T07:34:12.125Z,98120.38
2023-04-15T07:37:13.987Z,98117.03
2023-04-15T07:40:18.632Z,98130.25
2023-04-15T07:43:21.307Z,98115.59
2023-04-15T07:46:31.403Z,98122.91
2023-04-15T07:49:32.953Z,98121.84
2023-04-15T07:52:39.118Z,98129.09
2023-04-15T07:58:56.164Z,98133.09
2023-04-15T08:02:01.030Z,98132.00
2023-04-15T08:05:04.383Z,98138.75
2023-04-15T08:08:08.451Z,98132.25
2023-04-15T08:11:12.137Z,98143.63
2023-04-15T08:14:16.068Z,98137.81
2023-04-15T08:17:17.763Z,98137.84
2023-04-15T08:20:19.887Z,98155.16
2023-04-15T08:23:21.488Z,98153.78
2023-04-15T08:26:23.154Z,98142.22
2023-04-15T08:29:24.705Z,98158.66
2023-04-15T08:32:27.207Z,98164.25
2023-04-15T08:35:31.977Z,98160.50
2023-04-15T08:38:34.297Z,98158.19
2023-04-15T08:42:11.962Z,98170.97
2023-04-15T08:45:13.989Z,98167.53
2023-04-15T08:48:22.793Z,98168.47
2023-04-15T08:51:27.227Z,98167.78
2023-04-15T08:54:29.268Z,98177.53
2023-04-15T08:57:32.181Z,98174.28
2023-04-15T09:00:37.678Z,98173.69
2023-04-15T09:03:40.808Z,98167.09
2023-04-15T09:06:44.994Z,98177.38
2023-04-15T09:09:48.646Z,98172.97
2023-04-15T09:12:50.321Z,98177.25
2023-04-15T09:15:53.609Z,98173.06
2023-04-15T09:19:27.748Z,98178.91
2023-04-15T09:22:33.308Z,98187.03
2023-04-15T09:25:50.565Z,98181.72
2023-04-15T09:28:54.368Z,98190.22
2023-04-15T09:31:56.204Z,98189.75
2023-04-15T09:34:58.062Z,98192.88
2023-04-15T09:38:12.833Z,98204.13
2023-04-15T09:41:20.733Z,98203.59
2023-04-15T09:44:27.122Z,98198.16
2023-04-15T09:47:34.817Z,98195.53
2023-04-15T09:50:41.236Z,98212.03
2023-04-15T09:53:42.787Z,98206.66
2023-04-15T09:56:50.380Z,98196.41
2023-04-15T09:59:52.074Z,98203.16
2023-04-15T10:03:19.093Z,98213.66
2023-04-15T10:06:23.632Z,98203.47
2023-04-15T10:09:25.167Z,98208.06
2023-04-15T10:12:27.668Z,98213.72
2023-04-15T10:15:34.034Z,98215.34
2023-04-15T10:18:42.988Z,98204.47
2023-04-15T10:21:50.253Z,98211.03
2023-04-15T10:24:52.989Z,98218.47
2023-04-15T10:27:56.496Z,98221.59
2023-04-15T10:30:59.302Z,98219.25
2023-04-15T10:34:13.724Z,98226.88
2023-04-15T10:37:21.742Z,98219.97
2023-04-15T10:40:37.748Z,98219.28
2023-04-15T10:43:41.673Z,98221.75
2023-04-15T10:46:45.370Z,98229.78
2023-04-15T10:53:28.324Z,98231.00
2023-04-15T10:56:39.492Z,98224.56
2023-04-15T11:03:43.351Z,98218.41
2023-04-15T11:06:45.791Z,98231.03
2023-04-15T11:09:48.079Z,98238.44
2023-04-15T11:13:11.505Z,98239.97
2023-04-15T11:16:13.573Z,98246.50
2023-04-15T11:22:30.708Z,98245.41
2023-04-15T11:25:37.665Z,98243.88
2023-04-15T11:28:41.839Z,98256.34
2023-04-15T11:32:00.765Z,98245.03
2023-04-15T11:35:02.368Z,98250.53
2023-04-15T11:38:12.369Z,98262.94
2023-04-15T11:41:13.930Z,98260.22
2023-04-15T11:44:19.144Z,98271.19
2023-04-15T11:47:30.638Z,98246.06
2023-04-15T11:50:42.446Z,98250.47
2023-04-15T11:53:57.813Z,98271.91
2023-04-15T11:57:00.153Z,98257.47
2023-04-15T12:00:01.870Z,98272.66
2023-04-15T12:03:23.721Z,98281.31
2023-04-15T12:06:27.868Z,98275.06
2023-04-15T12:09:36.737Z,98281.31
2023-04-15T12:12:41.038Z,98289.84
2023-04-15T12:15:43.698Z,98304.72
2023-04-15T12:18:56.121Z,98324.59
2023-04-15T12:22:10.356Z,98337.09
2023-04-15T12:25:12.246Z,98329.66
2023-04-15T12:28:20.878Z,98323.44
2023-04-15T12:31:23.832Z,98334.63
2023-04-15T12:34:51.064Z,98348.00
2023-04-15T12:38:18.047Z,98327.34
2023-04-15T12:41:20.661Z,98344.50
2023-04-15T12:44:34.465Z,98346.91
2023-04-15T12:47:39.113Z,98356.56
2023-04-15T12:50:44.250Z,98365.56
2023-04-15T12:53:45.788Z,98374.97
2023-04-15T12:56:48.965Z,98386.72
2023-04-15T12:59:53.532Z,98402.72
2023-04-15T13:02:55.123Z,98391.72
2023-04-15T13:06:08.738Z,98407.81
2023-04-15T13:09:10.813Z,98421.44
2023-04-15T13:15:32.060Z,98421.81
2023-04-15T13:22:08.799Z,98421.84
2023-04-15T13:25:32.452Z,98412.81
2023-04-15T13:28:34.566Z,98419.44
2023-04-15T13:31:49.300Z,98425.75
2023-04-15T13:35:16.310Z,98427.97
2023-04-15T13:38:17.869Z,98419.84
2023-04-15T13:41:21.135Z,98392.09
2023-04-15T13:44:28.637Z,98418.72
2023-04-15T13:47:32.707Z,98419.50
2023-04-15T13:50:34.472Z,98424.97
2023-04-15T13:53:51.567Z,98418.34
2023-04-15T13:56:54.634Z,98433.56
2023-04-15T13:59:56.345Z,98413.63
2023-04-15T14:03:00.990Z,98429.63
2023-04-15T14:06:02.690Z,98405.41
2023-04-15T14:09:06.560Z,98402.66
2023-04-15T14:12:15.473Z,98408.59
2023-04-15T14:15:21.100Z,98406.97
2023-04-15T14:18:26.584Z,98417.13
2023-04-15T14:21:28.835Z,98421.03
2023-04-15T14:24:30.431Z,98431.53
2023-04-15T14:27:46.495Z,98429.47
2023-04-15T14:30:48.088Z,98438.88
2023-04-15T14:33:51.995Z,98446.38
2023-04-15T14:36:56.454Z,98433.06
2023-04-15T14:40:00.316Z,98435.69
2023-04-15T14:43:07.956Z,98435.19
2023-04-15T14:46:14.435Z,98433.69
2023-04-15T14:49:22.880Z,98449.69
2023-04-15T14:52:27.353Z,98456.41
2023-04-15T14:55:37.931Z,98461.66
2023-04-15T14:58:39.458Z,98464.34
2023-04-15T15:01:41.189Z,98467.50
2023-04-15T15:08:01.480Z,98466.03
2023-04-15T15:11:03.114Z,98481.69
2023-04-15T15:17:20.262Z,98474.75
2023-04-15T15:20:49.810Z,98482.47
2023-04-15T15:24:00.699Z,98498.88
2023-04-15T15:27:02.950Z,98502.63
2023-04-15T15:30:06.492Z,98502.09
2023-04-15T15:33:10.668Z,98503.25
2023-04-15T15:36:16.150Z,98509.00
2023-04-15T15:39:24.949Z,98513.22
2023-04-15T15:42:26.847Z,98516.38
2023-04-15T15:45:35.994Z,98509.25
2023-04-15T15:51:59.060Z,98523.13
2023-04-15T15:55:03.904Z,98528.50
2023-04-15T15:58:05.663Z,98523.66
2023-04-15T16:01:10.467Z,98522.41
2023-04-15T16:04:12.194Z,98534.69
2023-04-15T16:07:15.420Z,98526.25
2023-04-15T16:10:17.545Z,98536.41
2023-04-15T16:13:19.124Z,98537.22
2023-04-15T16:16:22.073Z,98541.47
2023-04-15T16:19:30.792Z,98544.50
2023-04-15T16:22:34.241Z,98533.25
2023-04-15T16:25:35.770Z,98557.88
2023-04-15T16:28:37.398Z,98538.25
2023-04-15T16:31:40.035Z,98547.69
2023-04-15T16:34:41.617Z,98570.47
2023-04-15T16:37:58.285Z,98584.69
2023-04-15T16:41:02.068Z,98575.56
2023-04-15T16:44:03.760Z,98582.69
2023-04-15T16:47:05.880Z,98587.41
2023-04-15T16:50:18.340Z,98591.44
2023-04-15T16:53:19.953Z,98609.63
2023-04-15T16:56:22.139Z,98604.19
2023-04-15T16:59:26.167Z,98606.47
2023-04-15T17:02:31.344Z,98628.16
2023-04-15T17:05:33.825Z,98622.38
2023-04-15T17:08:41.304Z,98617.16
2023-04-15T17:11:44.512Z,98638.22
2023-04-15T17:14:46.168Z,98633.97
2023-04-15T17:17:51.796Z,98641.88
2023-04-15T17:21:12.265Z,98649.41
2023-04-15T17:24:15.778Z,98641.19
2023-04-15T17:27:19.696Z,98656.69
2023-04-15T17:30:21.716Z,98669.31
2023-04-15T17:34:00.534Z,98664.94
2023-04-15T17:36:44.901Z,98683.41
2023-04-15T17:39:49.281Z,98675.00
2023-04-15T17:42:51.746Z,98681.41
2023-04-15T17:45:59.545Z,98687.78
2023-04-15T17:49:03.503Z,98705.19
2023-04-15T17:52:05.385Z,98710.25
2023-04-15T17:55:08.171Z,98718.03
2023-04-15T17:58:09.865Z,98722.28
2023-04-15T18:01:13.671Z,98734.50
2023-04-15T18:04:15.812Z,98733.50
2023-04-15T18:07:17.695Z,98733.88
2023-04-15T18:10:20.668Z,98742.22
2023-04-15T18:13:24.710Z,98766.38
2023-04-15T18:16:31.936Z,98769.13
2023-04-15T18:19:33.766Z,98782.66
2023-04-15T18:22:35.619Z,98784.81
2023-04-15T18:25:38.326Z,98786.84
2023-04-15T18:28:39.960Z,98791.91
2023-04-15T18:31:42.083Z,98801.84
2023-04-15T18:34:46.472Z,98814.66
2023-04-15T18:41:05.479Z,98845.91
2023-04-15T18:44:14.578Z,98850.47
2023-04-15T18:47:16.145Z,98867.81
2023-04-15T18:50:19.972Z,98841.13
2023-04-15T18:53:22.640Z,98872.03
2023-04-15T18:56:26.399Z,98873.75
2023-04-15T18:59:30.195Z,98879.69
2023-04-15T19:02:32.888Z,98884.22
2023-04-15T19:05:35.155Z,98896.16
2023-04-15T19:08:36.700Z,98901.94
2023-04-15T19:11:39.057Z,98908.25
2023-04-15T19:14:41.353Z,98904.50
2023-04-15T19:17:48.847Z,98919.72
2023-04-15T19:20:52.203Z,98931.38
2023-04-15T19:23:58.718Z,98925.28
2023-04-15T19:27:00.201Z,98941.84
2023-04-15T19:30:03.335Z,98930.97
2023-04-15T19:33:04.997Z,98941.00
2023-04-15T19:36:07.554Z,98955.09
2023-04-15T19:39:09.821Z,98955.28
2023-04-15T19:42:11.354Z,98951.78
2023-04-15T19:45:14.910Z,98964.69
2023-04-15T19:48:16.875Z,98974.22
2023-04-15T19:51:18.514Z,98973.44
2023-04-15T19:54:20.113Z,98974.72
2023-04-15T19:57:21.606Z,98969.53
2023-04-15T20:00:23.230Z,98980.97
2023-04-15T20:06:40.564Z,98974.00
2023-04-15T20:09:46.361Z,98994.13
2023-04-15T20:12:55.131Z,98996.50
2023-04-15T20:15:56.928Z,98978.16
2023-04-15T20:19:07.399Z,98991.44
2023-04-15T20:22:10.842Z,98991.31
2023-04-15T20:25:19.131Z,98992.06
2023-04-15T20:28:29.307Z,98996.69
2023-04-15T20:31:30.904Z,98998.91
2023-04-15T20:34:32.684Z,99006.50
2023-04-15T20:37:34.754Z,99014.13
2023-04-15T20:40:36.505Z,99010.63
2023-04-15T20:43:38.050Z,99014.56
2023-04-15T20:46:39.606Z,99014.56
2023-04-15T20:49:47.491Z,99010.31
2023-04-15T20:52:54.253Z,99015.56
2023-04-15T20:56:02.099Z,99010.16
2023-04-15T21:02:23.660Z,99028.53
2023-04-15T21:05:29.030Z,99026.47
2023-04-15T21:08:31.560Z,99034.72
2023-04-15T21:11:53.142Z,99035.06
2023-04-15T21:15:03.711Z,99032.34
2023-04-15T21:18:30.561Z,99041.06
2023-04-15T21:21:35.488Z,99043.91
2023-04-15T21:24:37.953Z,99046.75
2023-04-15T21:27:39.596Z,99049.91
2023-04-15T21:30:42.985Z,99058.94
2023-04-15T21:33:46.362Z,99052.78
2023-04-15T21:36:47.992Z,99053.09
2023-04-15T21:39:49.684Z,99050.72
2023-04-15T21:42:52.611Z,99055.31
2023-04-15T21:46:22.385Z,99058.81
2023-04-15T21:49:20.285Z,99070.38
2023-04-15T21:52:24.390Z,99070.69
2023-04-15T21:55:25.966Z,99073.06
2023-04-15T21:58:30.447Z,99083.03
2023-04-15T22:01:32.013Z,99068.78
2023-04-15T22:04:33.546Z,99080.81
2023-04-15T22:07:36.466Z,99070.97
2023-04-15T22:10:38.945Z,99074.31
2023-04-15T22:13:40.915Z,99094.94
2023-04-15T22:20:03.761Z,99078.09
2023-04-15T22:23:08.386Z,99092.69
2023-04-15T22:26:10.103Z,99104.72
2023-04-15T22:29:14.851Z,99099.19
2023-04-15T22:32:17.094Z,99087.44
2023-04-15T22:35:21.665Z,99101.88
2023-04-15T22:38:24.761Z,99105.03
2023-04-15T22:41:26.411Z,99107.13
2023-04-15T22:44:27.938Z,99115.03
2023-04-15T22:47:29.521Z,99118.19
2023-04-15T22:50:37.945Z,99113.91
2023-04-15T22:53:39.542Z,99115.81
2023-04-15T22:56:41.053Z,99123.25
2023-04-15T22:59:42.605Z,99131.19
2023-04-15T23:02:44.189Z,99124.19
2023-04-15T23:05:46.147Z,99122.94
2023-04-15T23:08:47.881Z,99128.84
2023-04-15T23:11:49.547Z,99132.34
2023-04-15T23:14:51.144Z,99137.34
2023-04-15T23:17:58.435Z,99137.97
2023-04-15T23:21:00.048Z,99122.44
2023-04-15T23:24:01.626Z,99134.19
2023-04-15T23:27:06.301Z,99145.59
2023-04-15T23:30:08.268Z,99126.25
2023-04-15T23:33:12.822Z,99141.19
2023-04-15T23:36:14.383Z,99142.88
2023-04-15T23:39:18.279Z,99142.09
2023-04-15T23:42:19.812Z,99141.63
2023-04-15T23:45:21.374Z,99145.72
2023-04-15T23:48:23.716Z,99146.81
2023-04-15T23:51:34.239Z,99141.44
2023-04-15T23:54:37.213Z,99140.50
2023-04-15T23:57:41.499Z,99154.13
